• Join FlightAware (Why Join?)
  • Login
  • US Flag 
01:17AM EST


 

Airport Tracker/Info


-or-


 

Live Flight TrackerFlight Track Log ✈ UAL4335 ✈ 24-Apr-2013 ✈ KEWR - KCVG

Flight Track Log - Related Links

Times and Time Zones

All times are in EDT time to prevent confusion due to time zone crossing. See the UAL4335 flight status page for this flight to view local times or setup timezone preferences in your user account.

Time Position Orientation Groundspeed Altitude Reporting Facility
EDT Latitude Longitude Course Direction KTS MPH feet Rate Location/Type
03:22PM 40.6333 -74.2000 270° West 205 236 2,100  Level New York TRACON
03:23PM 40.6333 -74.2833 270° West 251 289 5,200 3,060 Climbing New York TRACON
03:24PM 40.6833 -74.4927 270° West  Level FlightAware Approximate
03:24PM 40.6333 -74.3667 270° West 242 278 8,300  Level New York TRACON
03:25PM 40.6834 -74.6014 270° West  Level FlightAware Approximate
03:25PM 40.6333 -74.4500 270° West 269 310 10,900  Level New York TRACON
03:26PM 40.6833 -74.7101 270° West  Level FlightAware Approximate
03:27PM 40.6834 -74.8188 270° West  Level FlightAware Approximate
03:27PM 40.7389 -74.5450 326° Northwest 290 334 14,000  Level New York Center
03:28PM 40.7817 -74.6406 301° West 272 313 15,700 1,500 Climbing New York Center
03:29PM 40.7847 -74.7314 273° West 272 313 17,000 660 Climbing New York Center
03:30PM 40.7539 -74.8419 250° West 284 327 17,000  Level New York Center
03:31PM 40.7233 -74.9442 249° West 306 352 17,000 480 Level New York Center
03:32PM 40.6878 -75.0622 248° West 332 382 18,000 1,080 Climbing New York Center
03:33PM 40.6444 -75.1636 241° Southwest 351 404 19,200 1,200 Climbing New York Center
03:34PM 40.5944 -75.2778 240° Southwest 356 410 20,500 1,320 Climbing New York Center
03:35PM 40.5419 -75.3892 238° Southwest 363 418 21,900 1,320 Climbing New York Center
03:36PM 40.4872 -75.5083 239° Southwest 374 430 23,200 1,260 Climbing New York Center
03:37PM 40.4347 -75.6247 239° Southwest 374 430 24,500 1,200 Climbing New York Center
03:38PM 40.3797 -75.7433 239° Southwest 374 430 25,600 960 Climbing New York Center
03:40PM 40.2675 -75.9775 238° Southwest 395 455 27,400 720 Climbing New York Center
03:41PM 40.2008 -76.1192 238° Southwest 395 455 27,900 240 Climbing New York Center
03:42PM 40.1517 -76.2322 240° Southwest 395 455 28,000 600 Climbing New York Center
03:43PM 40.0897 -76.3550 237° Southwest 401 461 29,200 1,440 Climbing New York Center
03:44PM 40.0342 -76.4725 238° Southwest 395 455 31,000 1,380 Climbing New York Center
03:45PM 39.9803 -76.5900 239° Southwest 389 448 32,000 480 Climbing New York Center
03:46PM 39.9244 -76.7100 239° Southwest 389 448 32,000  Level New York Center
03:47PM 39.8703 -76.8297 240° Southwest 389 448 32,000  Level New York Center
03:47PM 39.8144 -76.9422 237° Southwest 388 447 32,000  Level Washington Center
03:48PM 39.7567 -77.0653 239° Southwest 388 447 32,000  Level Washington Center
03:49PM 39.7011 -77.1853 239° Southwest 388 447 32,000  Level Washington Center
03:50PM 39.6561 -77.2789 238° Southwest 388 447 32,000  Level Washington Center
03:51PM 39.5894 -77.4228 239° Southwest 388 447 32,000  Level Washington Center
03:52PM 39.5292 -77.5422 237° Southwest 388 447 32,000  Level Washington Center
03:53PM 39.4750 -77.6617 240° Southwest 388 447 32,000  Level Washington Center
03:54PM 39.4275 -77.7572 237° Southwest 393 452 32,000  Level Washington Center
03:55PM 39.3622 -77.9028 240° Southwest 393 452 32,000  Level Washington Center
03:56PM 39.3119 -78.0300 243° Southwest 393 452 32,000  Level Washington Center
03:57PM 39.2633 -78.1542 243° Southwest 393 452 32,000  Level Washington Center
03:58PM 39.2128 -78.2811 243° Southwest 393 452 32,000  Level Washington Center
03:59PM 39.1683 -78.3947 243° Southwest 399 459 32,000  Level Washington Center
04:00PM 39.1175 -78.5183 242° Southwest 399 459 32,000  Level Washington Center
04:01PM 39.0686 -78.6422 243° Southwest 399 459 32,000  Level Washington Center
04:02PM 39.0194 -78.7656 243° Southwest 399 459 32,000  Level Washington Center
04:03PM 38.9683 -78.8889 242° Southwest 399 459 32,000  Level Washington Center
04:04PM 38.9192 -79.0094 242° Southwest 399 459 32,000  Level Washington Center
04:06PM 38.8627 -79.1239 238° Southwest  Level FlightAware Approximate
04:06PM 38.8411 -79.2181 238° Southwest 384 442 32,000  Level Indianapolis Center
04:06PM 38.8428 -79.2644 273° West 399 459 32,000  Level Washington Center
04:07PM 38.8406 -79.4056 269° West 391 450 32,000  Level Washington Center
04:08PM 38.8381 -79.5467 269° West 396 456 32,000  Level Washington Center
04:09PM 38.8331 -79.6906 267° West 401 461 32,000  Level Washington Center
04:10PM 38.8303 -79.8314 269° West 401 461 32,000  Level Washington Center
04:11PM 38.8247 -79.9858 267° West 401 461 32,000  Level Washington Center
04:12PM 38.8217 -80.1269 268° West 401 461 32,000  Level Washington Center
04:13PM 38.8169 -80.2236 266° West 394 453 32,000  Level Indianapolis Center
04:14PM 38.8125 -80.3581 268° West 382 440 32,000  Level Indianapolis Center
04:15PM 38.8089 -80.5189 268° West 377 434 32,000  Level Indianapolis Center
04:16PM 38.8044 -80.6533 268° West 378 435 32,000  Level Indianapolis Center
04:17PM 38.8003 -80.7836 268° West 371 427 32,000  Level Indianapolis Center
04:18PM 38.7964 -80.9150 268° West 370 426 32,000  Level Indianapolis Center
04:20PM 38.7914 -81.0450 267° West 367 422 32,000  Level Indianapolis Center
04:21PM 38.7875 -81.1744 268° West 365 420 32,000 -60 Level Indianapolis Center
04:22PM 38.7825 -81.3300 268° West 367 422 31,900 -720 Descending Indianapolis Center
04:23PM 38.7772 -81.4683 267° West 371 427 30,600 -1,140 Descending Indianapolis Center
04:24PM 38.7717 -81.6022 267° West 366 421 29,600 -960 Descending Indianapolis Center
04:25PM 38.7675 -81.7125 267° West 365 420 28,700 -1,080 Descending Indianapolis Center
04:26PM 38.7617 -81.8689 267° West 368 423 27,400 -1,200 Descending Indianapolis Center
04:27PM 38.7558 -81.9989 267° West 368 423 26,300 -1,020 Descending Indianapolis Center
04:28PM 38.7281 -82.1244 254° West 367 422 25,300 -1,020 Descending Indianapolis Center
04:29PM 38.6956 -82.2469 251° West 366 421 24,200 -660 Descending Indianapolis Center
04:30PM 38.6642 -82.3661 251° West 357 411 24,000 -120 Descending Indianapolis Center
04:31PM 38.6289 -82.4975 251° West 350 403 24,000 -480 Level Indianapolis Center
04:32PM 38.5986 -82.6147 252° West 348 400 23,100 -960 Descending Indianapolis Center
04:33PM 38.5953 -82.7322 268° West 332 382 22,100 -540 Descending Indianapolis Center
04:34PM 38.5989 -82.8714 272° West 334 384 22,000 -60 Descending Indianapolis Center
04:35PM 38.6006 -82.9900 271° West 336 387 22,000 -480 Level Indianapolis Center
04:36PM 38.6031 -83.1111 272° West 340 391 21,100 -1,500 Descending Indianapolis Center
04:37PM 38.6042 -83.2264 271° West 328 377 19,000 -2,280 Descending Indianapolis Center
04:38PM 38.6067 -83.3628 271° West 330 380 16,400 -2,340 Descending Indianapolis Center
04:39PM 38.6083 -83.4764 271° West 324 373 14,200 -2,040 Descending Indianapolis Center
04:40PM 38.6106 -83.5797 272° West 301 346 12,300 -1,560 Descending Indianapolis Center
04:41PM 38.6114 -83.6825 271° West 290 334 11,000 -1,140 Descending Indianapolis Center
04:42PM 38.6125 -83.7886 271° West 298 343 10,000 -540 Descending Indianapolis Center
04:43PM 38.6144 -83.9142 271° West 303 349 10,000 -60 Level Indianapolis Center
04:44PM 38.6539 -83.9997 301° West 319 367 9,900 -300 Descending Indianapolis Center
04:45PM 38.6964 -84.0822 303° West 279 321 9,400 -540 Descending Indianapolis Center
04:46PM 38.7414 -84.1692 304° West 252 290 8,900 -840 Descending Indianapolis Center
04:47PM 38.7761 -84.2397 302° West 236 272 7,800 -1,200 Descending Indianapolis Center
04:48PM 38.8064 -84.3133 298° West 231 266 6,500 -1,440 Descending Indianapolis Center
04:49PM 38.8678 -84.3550 332° Northwest 259 298 4,900 -780 Descending Indianapolis Center
04:50PM 38.9333 -84.3833 341° North 233 268 5,000 -60 Climbing Cincinnati TRACON
04:51PM 38.9833 -84.4167 333° Northwest 180 207 4,800 -600 Descending Cincinnati TRACON
04:52PM 39.0333 -84.4333 345° North 197 227 3,900 -840 Descending Cincinnati TRACON
04:53PM 39.0500 -84.5000 288° West 182 209 3,200 -720 Descending Cincinnati TRACON